SWA1642 KPHX-KLAX
Flight info
| Callsign | SWA1642 |
|---|---|
| Flight time | 1h 0m |
| Altitude | 32000 |
| Route | KEENS3 WLVRN ESTWD HLYWD1 |
| Aircraft | B38M/M-SADE2E3GHIJ4J7P2RWZ/LB1D1 |
Departure
| Time | 2026-04-26 01:22 |
|---|---|
| Airport | Phoenix Sky Harbor International Airport (KPHX) |
Arrival
| Time | 2026-04-26 02:23 |
|---|---|
| Airport | Los Angeles International Airport (KLAX) |
| Time | Latitude | Longitude | Altitude | Speed | Heading |
|---|---|---|---|---|---|
| 2026-04-26 00:56 | 33.43432 | -112.00275 | 1119 ft | 0 kts | 90° |
| 2026-04-26 01:04 | 33.43432 | -112.00277 | 1127 ft | 0 kts | 90° |
| 2026-04-26 01:04 | 33.43432 | -112.00281 | 1127 ft | 2 kts | 90° |
| 2026-04-26 01:04 | 33.43430 | -112.00300 | 1122 ft | 2 kts | 70° |
| 2026-04-26 01:04 | 33.43427 | -112.00319 | 1127 ft | 2 kts | 109° |
| 2026-04-26 01:05 | 33.43426 | -112.00333 | 1123 ft | 0 kts | 45° |
| 2026-04-26 01:05 | 33.43425 | -112.00325 | 1125 ft | 1 kts | 116° |
| 2026-04-26 01:05 | 33.43417 | -112.00320 | 1119 ft | 1 kts | 167° |
| 2026-04-26 01:05 | 33.43414 | -112.00320 | 1121 ft | 0 kts | 175° |
| 2026-04-26 01:08 | 33.43409 | -112.00320 | 1118 ft | 2 kts | 175° |
| 2026-04-26 01:08 | 33.43362 | -112.00320 | 1124 ft | 11 kts | 181° |
| 2026-04-26 01:08 | 33.43290 | -112.00298 | 1125 ft | 11 kts | 122° |
| 2026-04-26 01:08 | 33.43283 | -112.00201 | 1126 ft | 13 kts | 90° |
| 2026-04-26 01:09 | 33.43283 | -112.00086 | 1128 ft | 15 kts | 90° |
| 2026-04-26 01:09 | 33.43249 | -112.00048 | 1125 ft | 5 kts | 184° |
| 2026-04-26 01:09 | 33.43224 | -112.00034 | 1132 ft | 5 kts | 126° |
| 2026-04-26 01:09 | 33.43213 | -111.99956 | 1131 ft | 15 kts | 90° |
| 2026-04-26 01:10 | 33.43219 | -111.99830 | 1130 ft | 10 kts | 64° |
| 2026-04-26 01:10 | 33.43279 | -111.99830 | 1116 ft | 11 kts | 298° |
| 2026-04-26 01:10 | 33.43283 | -111.99928 | 1122 ft | 12 kts | 270° |
| 2026-04-26 01:10 | 33.43283 | -111.99967 | 1122 ft | 0 kts | 270° |
| 2026-04-26 01:19 | 33.43283 | -111.99972 | 1122 ft | 2 kts | 270° |
| 2026-04-26 01:19 | 33.43283 | -111.99998 | 1122 ft | 5 kts | 270° |
| 2026-04-26 01:19 | 33.43264 | -112.00042 | 1122 ft | 7 kts | 212° |
| 2026-04-26 01:19 | 33.43218 | -112.00019 | 1131 ft | 10 kts | 109° |
| 2026-04-26 01:20 | 33.43214 | -111.99914 | 1131 ft | 16 kts | 90° |
| 2026-04-26 01:20 | 33.43214 | -111.99758 | 1133 ft | 21 kts | 89° |
| 2026-04-26 01:20 | 33.43213 | -111.99578 | 1130 ft | 23 kts | 90° |
| 2026-04-26 01:20 | 33.43213 | -111.99415 | 1129 ft | 14 kts | 90° |
| 2026-04-26 01:21 | 33.43180 | -111.99344 | 1131 ft | 7 kts | 162° |
| 2026-04-26 01:21 | 33.43146 | -111.99344 | 1136 ft | 3 kts | 181° |
| 2026-04-26 01:21 | 33.43114 | -111.99354 | 1136 ft | 8 kts | 222° |
| 2026-04-26 01:21 | 33.43105 | -111.99488 | 1134 ft | 37 kts | 270° |
| 2026-04-26 01:22 | 33.43105 | -112.00099 | 1134 ft | 107 kts | 270° |
| 2026-04-26 01:22 | 33.43105 | -112.01232 | 1143 ft | 161 kts | 270° |
| 2026-04-26 01:22 | 33.43094 | -112.02614 | 1717 ft | 169 kts | 267° |
| 2026-04-26 01:22 | 33.43029 | -112.04069 | 2344 ft | 179 kts | 266° |
| 2026-04-26 01:23 | 33.42945 | -112.05580 | 2974 ft | 189 kts | 266° |
| 2026-04-26 01:23 | 33.42839 | -112.07292 | 3264 ft | 221 kts | 261° |
| 2026-04-26 01:23 | 33.42420 | -112.09105 | 3910 ft | 230 kts | 250° |
| 2026-04-26 01:23 | 33.41826 | -112.10957 | 4523 ft | 246 kts | 248° |
| 2026-04-26 01:24 | 33.41192 | -112.12881 | 5326 ft | 251 kts | 248° |
| 2026-04-26 01:24 | 33.40562 | -112.14827 | 6174 ft | 253 kts | 247° |
| 2026-04-26 01:24 | 33.39935 | -112.16804 | 7030 ft | 256 kts | 248° |
| 2026-04-26 01:24 | 33.39342 | -112.18844 | 7773 ft | 263 kts | 255° |
| 2026-04-26 01:25 | 33.39325 | -112.21041 | 8650 ft | 269 kts | 276° |
| 2026-04-26 01:25 | 33.39633 | -112.23271 | 9434 ft | 274 kts | 276° |
| 2026-04-26 01:25 | 33.39945 | -112.25523 | 10235 ft | 276 kts | 276° |
| 2026-04-26 01:25 | 33.40276 | -112.27862 | 10658 ft | 294 kts | 276° |
| 2026-04-26 01:26 | 33.40639 | -112.30360 | 10993 ft | 313 kts | 277° |
| 2026-04-26 01:26 | 33.41025 | -112.32980 | 11458 ft | 326 kts | 277° |
| 2026-04-26 01:26 | 33.41424 | -112.35680 | 12173 ft | 330 kts | 277° |
| 2026-04-26 01:26 | 33.41824 | -112.38386 | 13024 ft | 331 kts | 277° |
| 2026-04-26 01:27 | 33.42226 | -112.41106 | 13832 ft | 333 kts | 277° |
| 2026-04-26 01:27 | 33.42629 | -112.43843 | 14575 ft | 335 kts | 276° |
| 2026-04-26 01:27 | 33.43036 | -112.46604 | 15331 ft | 338 kts | 276° |
| 2026-04-26 01:27 | 33.43446 | -112.49391 | 16050 ft | 342 kts | 276° |
| 2026-04-26 01:28 | 33.43860 | -112.52211 | 16758 ft | 345 kts | 276° |
| 2026-04-26 01:28 | 33.44272 | -112.55020 | 17465 ft | 348 kts | 276° |
| 2026-04-26 01:28 | 33.44692 | -112.57887 | 18158 ft | 352 kts | 276° |
| 2026-04-26 01:28 | 33.45018 | -112.60797 | 18748 ft | 351 kts | 267° |
| 2026-04-26 01:29 | 33.45007 | -112.63722 | 19356 ft | 353 kts | 267° |
| 2026-04-26 01:29 | 33.45041 | -112.66669 | 19962 ft | 355 kts | 268° |
| 2026-04-26 01:29 | 33.45089 | -112.69640 | 20560 ft | 358 kts | 268° |
| 2026-04-26 01:29 | 33.45146 | -112.72634 | 21144 ft | 361 kts | 268° |
| 2026-04-26 01:30 | 33.45207 | -112.75645 | 21728 ft | 363 kts | 268° |
| 2026-04-26 01:30 | 33.45297 | -112.78683 | 22296 ft | 367 kts | 272° |
| 2026-04-26 01:30 | 33.45969 | -112.81673 | 22877 ft | 378 kts | 287° |
| 2026-04-26 01:30 | 33.46955 | -112.84602 | 23412 ft | 380 kts | 286° |
| 2026-04-26 01:31 | 33.47955 | -112.87551 | 23853 ft | 383 kts | 286° |
| 2026-04-26 01:31 | 33.48976 | -112.90515 | 24320 ft | 385 kts | 286° |
| 2026-04-26 01:31 | 33.49994 | -112.93445 | 24767 ft | 387 kts | 286° |
| 2026-04-26 01:31 | 33.51036 | -112.96432 | 25211 ft | 389 kts | 286° |
| 2026-04-26 01:32 | 33.52084 | -112.99432 | 25650 ft | 391 kts | 286° |
| 2026-04-26 01:32 | 33.53138 | -113.02452 | 26102 ft | 393 kts | 286° |
| 2026-04-26 01:32 | 33.54196 | -113.05484 | 26495 ft | 396 kts | 286° |
| 2026-04-26 01:32 | 33.55265 | -113.08550 | 26908 ft | 400 kts | 286° |
| 2026-04-26 01:33 | 33.56341 | -113.11640 | 27334 ft | 403 kts | 285° |
| 2026-04-26 01:33 | 33.57420 | -113.14741 | 27820 ft | 403 kts | 285° |
| 2026-04-26 01:33 | 33.58505 | -113.17862 | 28196 ft | 406 kts | 285° |
| 2026-04-26 01:33 | 33.59593 | -113.20997 | 28606 ft | 408 kts | 285° |
| 2026-04-26 01:34 | 33.60687 | -113.24151 | 29009 ft | 410 kts | 285° |
| 2026-04-26 01:34 | 33.61786 | -113.27319 | 29380 ft | 412 kts | 285° |
| 2026-04-26 01:34 | 33.62890 | -113.30508 | 29762 ft | 415 kts | 285° |
| 2026-04-26 01:34 | 33.63999 | -113.33715 | 30073 ft | 417 kts | 284° |
| 2026-04-26 01:35 | 33.65110 | -113.36933 | 30444 ft | 417 kts | 284° |
| 2026-04-26 01:35 | 33.66218 | -113.40141 | 30940 ft | 414 kts | 284° |
| 2026-04-26 01:35 | 33.67301 | -113.43281 | 31468 ft | 411 kts | 284° |
| 2026-04-26 01:35 | 33.68392 | -113.46451 | 31847 ft | 411 kts | 283° |
| 2026-04-26 01:36 | 33.70555 | -113.52736 | 31863 ft | 405 kts | 283° |
| 2026-04-26 01:37 | 33.73785 | -113.62149 | 31854 ft | 404 kts | 283° |
| 2026-04-26 01:37 | 33.75887 | -113.68289 | 31771 ft | 394 kts | 283° |
| 2026-04-26 01:38 | 33.77969 | -113.74385 | 31773 ft | 394 kts | 283° |
| 2026-04-26 01:38 | 33.80032 | -113.80437 | 31764 ft | 393 kts | 283° |
| 2026-04-26 01:39 | 33.82107 | -113.86533 | 31769 ft | 393 kts | 283° |
| 2026-04-26 01:39 | 33.84173 | -113.92617 | 31784 ft | 393 kts | 283° |
| 2026-04-26 01:40 | 33.85896 | -113.97696 | 31761 ft | 394 kts | 283° |
| 2026-04-26 01:40 | 33.87967 | -114.03813 | 31759 ft | 394 kts | 283° |
| 2026-04-26 01:41 | 33.90033 | -114.09927 | 31743 ft | 395 kts | 283° |
| 2026-04-26 01:41 | 33.90807 | -114.13044 | 31746 ft | 383 kts | 272° |
| 2026-04-26 01:41 | 33.91325 | -114.16196 | 31739 ft | 385 kts | 274° |
| 2026-04-26 01:42 | 33.92411 | -114.22503 | 31751 ft | 385 kts | 274° |
| 2026-04-26 01:42 | 33.93483 | -114.28816 | 31750 ft | 384 kts | 274° |
| 2026-04-26 01:43 | 33.94550 | -114.35126 | 31737 ft | 384 kts | 274° |
| 2026-04-26 01:43 | 33.95606 | -114.41397 | 31751 ft | 384 kts | 273° |
| 2026-04-26 01:44 | 33.96663 | -114.47691 | 31761 ft | 384 kts | 273° |
| 2026-04-26 01:44 | 33.97723 | -114.54025 | 31740 ft | 385 kts | 273° |
| 2026-04-26 01:45 | 33.98781 | -114.60366 | 31726 ft | 385 kts | 273° |
| 2026-04-26 01:45 | 33.99834 | -114.66698 | 31729 ft | 385 kts | 273° |
| 2026-04-26 01:46 | 34.00884 | -114.73031 | 31733 ft | 385 kts | 273° |
| 2026-04-26 01:46 | 34.01929 | -114.79356 | 31742 ft | 382 kts | 273° |
| 2026-04-26 01:47 | 34.02941 | -114.85509 | 31738 ft | 373 kts | 272° |
| 2026-04-26 01:47 | 34.03948 | -114.91645 | 31738 ft | 373 kts | 272° |
| 2026-04-26 01:48 | 34.04952 | -114.97780 | 31732 ft | 373 kts | 272° |
| 2026-04-26 01:48 | 34.05954 | -115.03920 | 31743 ft | 373 kts | 272° |
| 2026-04-26 01:49 | 34.06954 | -115.10060 | 31763 ft | 373 kts | 272° |
| 2026-04-26 01:49 | 34.07957 | -115.16233 | 31735 ft | 376 kts | 272° |
| 2026-04-26 01:50 | 34.08960 | -115.22426 | 31739 ft | 376 kts | 272° |
| 2026-04-26 01:50 | 34.09961 | -115.28631 | 31738 ft | 376 kts | 272° |
| 2026-04-26 01:51 | 34.10951 | -115.34791 | 31731 ft | 376 kts | 272° |
| 2026-04-26 01:51 | 34.11948 | -115.41010 | 31736 ft | 378 kts | 272° |
| 2026-04-26 01:52 | 34.12943 | -115.47241 | 31730 ft | 378 kts | 272° |
| 2026-04-26 01:52 | 34.13934 | -115.53466 | 31747 ft | 378 kts | 272° |
| 2026-04-26 01:53 | 34.14922 | -115.59692 | 31728 ft | 377 kts | 272° |
| 2026-04-26 01:53 | 34.15909 | -115.65927 | 31751 ft | 378 kts | 272° |
| 2026-04-26 01:53 | 34.16239 | -115.69036 | 31723 ft | 366 kts | 261° |
| 2026-04-26 01:54 | 34.15986 | -115.72062 | 31746 ft | 363 kts | 258° |
| 2026-04-26 01:54 | 34.15481 | -115.78099 | 31771 ft | 364 kts | 257° |
| 2026-04-26 01:55 | 34.14914 | -115.84180 | 31778 ft | 364 kts | 257° |
| 2026-04-26 01:55 | 34.14327 | -115.90259 | 31803 ft | 364 kts | 257° |
| 2026-04-26 01:56 | 34.13735 | -115.96332 | 31843 ft | 364 kts | 257° |
| 2026-04-26 01:56 | 34.13140 | -116.02427 | 31836 ft | 366 kts | 257° |
| 2026-04-26 01:57 | 34.12542 | -116.08525 | 31837 ft | 366 kts | 257° |
| 2026-04-26 01:57 | 34.11940 | -116.14633 | 31836 ft | 367 kts | 257° |
| 2026-04-26 01:58 | 34.11339 | -116.20707 | 31826 ft | 366 kts | 257° |
| 2026-04-26 01:58 | 34.10730 | -116.26812 | 31789 ft | 366 kts | 257° |
| 2026-04-26 01:59 | 34.10092 | -116.32944 | 31569 ft | 369 kts | 257° |
| 2026-04-26 01:59 | 34.09766 | -116.36013 | 31148 ft | 369 kts | 257° |
| 2026-04-26 01:59 | 34.09438 | -116.39087 | 30527 ft | 369 kts | 257° |
| 2026-04-26 01:59 | 34.09110 | -116.42159 | 29740 ft | 371 kts | 257° |
| 2026-04-26 02:00 | 34.08777 | -116.45265 | 28793 ft | 375 kts | 257° |
| 2026-04-26 02:00 | 34.08442 | -116.48391 | 27961 ft | 377 kts | 257° |
| 2026-04-26 02:00 | 34.08105 | -116.51535 | 27170 ft | 379 kts | 257° |
| 2026-04-26 02:00 | 34.07766 | -116.54682 | 26608 ft | 376 kts | 257° |
| 2026-04-26 02:01 | 34.07430 | -116.57793 | 26068 ft | 372 kts | 258° |
| 2026-04-26 02:01 | 34.07146 | -116.60843 | 25616 ft | 368 kts | 259° |
| 2026-04-26 02:01 | 34.06866 | -116.63884 | 25248 ft | 362 kts | 259° |
| 2026-04-26 02:01 | 34.06588 | -116.66881 | 24852 ft | 357 kts | 259° |
| 2026-04-26 02:02 | 34.06312 | -116.69833 | 24464 ft | 352 kts | 259° |
| 2026-04-26 02:02 | 34.06038 | -116.72753 | 24094 ft | 348 kts | 259° |
| 2026-04-26 02:02 | 34.05764 | -116.75651 | 23837 ft | 349 kts | 258° |
| 2026-04-26 02:02 | 34.05490 | -116.78564 | 23675 ft | 349 kts | 259° |
| 2026-04-26 02:03 | 34.05215 | -116.81470 | 23475 ft | 348 kts | 259° |
| 2026-04-26 02:03 | 34.04940 | -116.84363 | 23246 ft | 348 kts | 259° |
| 2026-04-26 02:03 | 34.04665 | -116.87263 | 23048 ft | 347 kts | 259° |
| 2026-04-26 02:03 | 34.04328 | -116.90120 | 22626 ft | 342 kts | 256° |
| 2026-04-26 02:04 | 34.03963 | -116.92944 | 22212 ft | 338 kts | 257° |
| 2026-04-26 02:04 | 34.03608 | -116.95726 | 21837 ft | 334 kts | 257° |
| 2026-04-26 02:04 | 34.03258 | -116.98478 | 21453 ft | 330 kts | 257° |
| 2026-04-26 02:04 | 34.02912 | -117.01204 | 21056 ft | 328 kts | 257° |
| 2026-04-26 02:05 | 34.02585 | -117.03880 | 20638 ft | 327 kts | 258° |
| 2026-04-26 02:05 | 34.02265 | -117.06592 | 20181 ft | 327 kts | 258° |
| 2026-04-26 02:05 | 34.01939 | -117.09338 | 19791 ft | 326 kts | 258° |
| 2026-04-26 02:05 | 34.01621 | -117.12003 | 19415 ft | 325 kts | 258° |
| 2026-04-26 02:06 | 34.01300 | -117.14688 | 19021 ft | 323 kts | 258° |
| 2026-04-26 02:06 | 34.00980 | -117.17367 | 18636 ft | 322 kts | 258° |
| 2026-04-26 02:06 | 34.00661 | -117.20025 | 18277 ft | 320 kts | 258° |
| 2026-04-26 02:06 | 34.00344 | -117.22674 | 17824 ft | 318 kts | 258° |
| 2026-04-26 02:07 | 34.00028 | -117.25311 | 17344 ft | 317 kts | 258° |
| 2026-04-26 02:07 | 33.99713 | -117.27930 | 16992 ft | 316 kts | 258° |
| 2026-04-26 02:07 | 33.99399 | -117.30555 | 16593 ft | 316 kts | 259° |
| 2026-04-26 02:07 | 33.99092 | -117.33176 | 16153 ft | 316 kts | 259° |
| 2026-04-26 02:08 | 33.98786 | -117.35781 | 15788 ft | 312 kts | 259° |
| 2026-04-26 02:08 | 33.98483 | -117.38359 | 15416 ft | 309 kts | 259° |
| 2026-04-26 02:08 | 33.98181 | -117.40916 | 15043 ft | 307 kts | 259° |
| 2026-04-26 02:08 | 33.97881 | -117.43457 | 14651 ft | 306 kts | 259° |
| 2026-04-26 02:09 | 33.97582 | -117.45983 | 14285 ft | 303 kts | 259° |
| 2026-04-26 02:09 | 33.97366 | -117.48505 | 13899 ft | 304 kts | 270° |
| 2026-04-26 02:09 | 33.97800 | -117.51007 | 13511 ft | 305 kts | 282° |
| 2026-04-26 02:09 | 33.98351 | -117.53417 | 13209 ft | 300 kts | 282° |
| 2026-04-26 02:10 | 33.98913 | -117.55855 | 12889 ft | 296 kts | 282° |
| 2026-04-26 02:10 | 33.99468 | -117.58234 | 12546 ft | 294 kts | 282° |
| 2026-04-26 02:10 | 34.00018 | -117.60579 | 12211 ft | 295 kts | 282° |
| 2026-04-26 02:10 | 34.00574 | -117.62945 | 11860 ft | 292 kts | 282° |
| 2026-04-26 02:11 | 34.01121 | -117.65268 | 11514 ft | 282 kts | 282° |
| 2026-04-26 02:11 | 34.01646 | -117.67504 | 11227 ft | 274 kts | 282° |
| 2026-04-26 02:11 | 34.02086 | -117.69725 | 10878 ft | 270 kts | 270° |
| 2026-04-26 02:11 | 34.01953 | -117.71962 | 10522 ft | 267 kts | 262° |
| 2026-04-26 02:12 | 34.01758 | -117.74181 | 10211 ft | 265 kts | 262° |
| 2026-04-26 02:12 | 34.01556 | -117.76382 | 9895 ft | 263 kts | 261° |
| 2026-04-26 02:12 | 34.01351 | -117.78565 | 9544 ft | 261 kts | 261° |
| 2026-04-26 02:12 | 34.01144 | -117.80734 | 9216 ft | 260 kts | 261° |
| 2026-04-26 02:13 | 34.00935 | -117.82892 | 8916 ft | 258 kts | 261° |
| 2026-04-26 02:13 | 34.00727 | -117.85035 | 8599 ft | 257 kts | 261° |
| 2026-04-26 02:13 | 34.00518 | -117.87172 | 8254 ft | 257 kts | 261° |
| 2026-04-26 02:13 | 34.00310 | -117.89303 | 7960 ft | 254 kts | 262° |
| 2026-04-26 02:14 | 34.00108 | -117.91359 | 7651 ft | 245 kts | 262° |
| 2026-04-26 02:14 | 33.99912 | -117.93360 | 7347 ft | 237 kts | 262° |
| 2026-04-26 02:14 | 33.99722 | -117.95292 | 7068 ft | 227 kts | 262° |
| 2026-04-26 02:14 | 33.99544 | -117.97111 | 6905 ft | 209 kts | 262° |
| 2026-04-26 02:15 | 33.99378 | -117.98794 | 6662 ft | 196 kts | 262° |
| 2026-04-26 02:15 | 33.99218 | -118.00402 | 6384 ft | 191 kts | 262° |
| 2026-04-26 02:15 | 33.99062 | -118.01969 | 6123 ft | 185 kts | 262° |
| 2026-04-26 02:15 | 33.98911 | -118.03492 | 5890 ft | 181 kts | 262° |
| 2026-04-26 02:16 | 33.98761 | -118.05007 | 5684 ft | 183 kts | 262° |
| 2026-04-26 02:16 | 33.98628 | -118.06538 | 5468 ft | 184 kts | 262° |
| 2026-04-26 02:16 | 33.98486 | -118.08071 | 5248 ft | 184 kts | 262° |
| 2026-04-26 02:16 | 33.98337 | -118.09602 | 5023 ft | 184 kts | 262° |
| 2026-04-26 02:17 | 33.98186 | -118.11135 | 4803 ft | 184 kts | 262° |
| 2026-04-26 02:17 | 33.98031 | -118.12664 | 4565 ft | 184 kts | 262° |
| 2026-04-26 02:17 | 33.97876 | -118.14193 | 4330 ft | 184 kts | 262° |
| 2026-04-26 02:17 | 33.97721 | -118.15719 | 4100 ft | 183 kts | 262° |
| 2026-04-26 02:18 | 33.97568 | -118.17216 | 3864 ft | 182 kts | 262° |
| 2026-04-26 02:18 | 33.97413 | -118.18724 | 3626 ft | 181 kts | 262° |
| 2026-04-26 02:18 | 33.97260 | -118.20224 | 3392 ft | 180 kts | 262° |
| 2026-04-26 02:18 | 33.97106 | -118.21721 | 3162 ft | 180 kts | 262° |
| 2026-04-26 02:19 | 33.96953 | -118.23208 | 2917 ft | 178 kts | 262° |
| 2026-04-26 02:19 | 33.96803 | -118.24687 | 2684 ft | 177 kts | 262° |
| 2026-04-26 02:19 | 33.96653 | -118.26142 | 2462 ft | 174 kts | 262° |
| 2026-04-26 02:19 | 33.96507 | -118.27562 | 2217 ft | 163 kts | 262° |
| 2026-04-26 02:20 | 33.96378 | -118.28830 | 2038 ft | 146 kts | 262° |
| 2026-04-26 02:20 | 33.96255 | -118.30024 | 1816 ft | 142 kts | 262° |
| 2026-04-26 02:20 | 33.96134 | -118.31201 | 1616 ft | 141 kts | 261° |
| 2026-04-26 02:20 | 33.96011 | -118.32381 | 1399 ft | 143 kts | 262° |
| 2026-04-26 02:21 | 33.95887 | -118.33555 | 1241 ft | 144 kts | 262° |
| 2026-04-26 02:21 | 33.95768 | -118.34765 | 1040 ft | 146 kts | 264° |
| 2026-04-26 02:21 | 33.95644 | -118.35963 | 841 ft | 142 kts | 263° |
| 2026-04-26 02:21 | 33.95529 | -118.37144 | 631 ft | 141 kts | 262° |
| 2026-04-26 02:22 | 33.95404 | -118.38311 | 420 ft | 140 kts | 262° |
| 2026-04-26 02:22 | 33.95286 | -118.39468 | 255 ft | 138 kts | 262° |
| 2026-04-26 02:22 | 33.95170 | -118.40594 | 101 ft | 130 kts | 262° |
| 2026-04-26 02:22 | 33.95077 | -118.41501 | 99 ft | 76 kts | 263° |
| 2026-04-26 02:23 | 33.95023 | -118.41985 | 97 ft | 39 kts | 257° |
| 2026-04-26 02:23 | 33.94936 | -118.42202 | 97 ft | 16 kts | 225° |
| 2026-04-26 02:23 | 33.94884 | -118.42255 | 97 ft | 5 kts | 213° |
| 2026-04-26 02:23 | 33.94877 | -118.42260 | 101 ft | 0 kts | 208° |
| 2026-04-26 02:24 | 33.94872 | -118.42262 | 100 ft | 2 kts | 204° |
| 2026-04-26 02:24 | 33.94833 | -118.42276 | 99 ft | 11 kts | 193° |
| 2026-04-26 02:25 | 33.94724 | -118.42272 | 97 ft | 17 kts | 166° |
| 2026-04-26 02:25 | 33.94687 | -118.42200 | 96 ft | 12 kts | 87° |
| 2026-04-26 02:25 | 33.94698 | -118.42092 | 96 ft | 14 kts | 83° |
| 2026-04-26 02:25 | 33.94711 | -118.41964 | 96 ft | 17 kts | 83° |
| 2026-04-26 02:26 | 33.94720 | -118.41864 | 96 ft | 19 kts | 83° |
| 2026-04-26 02:26 | 33.94736 | -118.41700 | 96 ft | 21 kts | 83° |
| 2026-04-26 02:26 | 33.94756 | -118.41519 | 96 ft | 21 kts | 82° |
| 2026-04-26 02:26 | 33.94772 | -118.41414 | 96 ft | 17 kts | 73° |